sensor_id;sensor_type;location;lat;lon;timestamp;P1;durP1;ratioP1;P2;durP2;ratioP2
5869;SDS011;2961;47.702;9.410;2023-04-03T00:00:38;6.70;;;6.10;;
5869;SDS011;2961;47.702;9.410;2023-04-03T00:03:05;5.90;;;5.40;;
5869;SDS011;2961;47.702;9.410;2023-04-03T00:05:32;6.77;;;6.07;;
5869;SDS011;2961;47.702;9.410;2023-04-03T00:07:59;7.37;;;6.50;;
5869;SDS011;2961;47.702;9.410;2023-04-03T00:10:28;6.47;;;5.87;;
5869;SDS011;2961;47.702;9.410;2023-04-03T00:12:55;8.30;;;5.70;;
5869;SDS011;2961;47.702;9.410;2023-04-03T00:15:22;6.40;;;5.90;;
5869;SDS011;2961;47.702;9.410;2023-04-03T00:17:48;5.83;;;5.20;;
5869;SDS011;2961;47.702;9.410;2023-04-03T00:20:15;7.13;;;5.87;;
5869;SDS011;2961;47.702;9.410;2023-04-03T00:22:42;5.73;;;5.23;;
5869;SDS011;2961;47.702;9.410;2023-04-03T00:25:09;4.67;;;4.37;;
5869;SDS011;2961;47.702;9.410;2023-04-03T00:27:38;4.93;;;4.43;;
5869;SDS011;2961;47.702;9.410;2023-04-03T00:30:05;4.30;;;3.90;;
5869;SDS011;2961;47.702;9.410;2023-04-03T00:32:34;4.77;;;4.37;;
5869;SDS011;2961;47.702;9.410;2023-04-03T00:35:01;4.87;;;4.50;;
5869;SDS011;2961;47.702;9.410;2023-04-03T00:37:28;4.97;;;4.57;;
5869;SDS011;2961;47.702;9.410;2023-04-03T00:39:55;8.60;;;5.07;;
5869;SDS011;2961;47.702;9.410;2023-04-03T00:42:22;5.80;;;5.17;;
5869;SDS011;2961;47.702;9.410;2023-04-03T00:47:54;4.97;;;4.57;;
5869;SDS011;2961;47.702;9.410;2023-04-03T00:50:21;5.10;;;4.70;;
5869;SDS011;2961;47.702;9.410;2023-04-03T00:52:49;5.87;;;4.40;;
5869;SDS011;2961;47.702;9.410;2023-04-03T00:55:16;4.67;;;4.27;;
5869;SDS011;2961;47.702;9.410;2023-04-03T00:57:43;4.27;;;4.03;;
5869;SDS011;2961;47.702;9.410;2023-04-03T01:00:13;4.17;;;3.87;;
5869;SDS011;2961;47.702;9.410;2023-04-03T01:02:44;6.43;;;3.93;;
5869;SDS011;2961;47.702;9.410;2023-04-03T01:05:11;3.67;;;3.47;;
5869;SDS011;2961;47.702;9.410;2023-04-03T01:07:41;4.90;;;4.50;;
5869;SDS011;2961;47.702;9.410;2023-04-03T01:10:09;4.67;;;4.23;;
5869;SDS011;2961;47.702;9.410;2023-04-03T01:12:39;4.67;;;4.27;;
5869;SDS011;2961;47.702;9.410;2023-04-03T01:15:10;5.07;;;4.67;;
5869;SDS011;2961;47.702;9.410;2023-04-03T01:17:39;4.33;;;4.03;;
5869;SDS011;2961;47.702;9.410;2023-04-03T01:20:22;5.03;;;4.40;;
5869;SDS011;2961;47.702;9.410;2023-04-03T01:23:17;5.23;;;4.73;;
5869;SDS011;2961;47.702;9.410;2023-04-03T01:25:54;5.80;;;5.20;;
5869;SDS011;2961;47.702;9.410;2023-04-03T01:28:23;5.70;;;5.20;;
5869;SDS011;2961;47.702;9.410;2023-04-03T01:30:53;3.80;;;3.60;;
5869;SDS011;2961;47.702;9.410;2023-04-03T01:33:26;5.47;;;4.97;;
5869;SDS011;2961;47.702;9.410;2023-04-03T01:35:53;5.90;;;5.40;;
5869;SDS011;2961;47.702;9.410;2023-04-03T01:38:20;5.40;;;4.87;;
5869;SDS011;2961;47.702;9.410;2023-04-03T01:40:47;7.90;;;6.00;;
5869;SDS011;2961;47.702;9.410;2023-04-03T01:43:13;6.43;;;5.77;;
5869;SDS011;2961;47.702;9.410;2023-04-03T01:45:40;5.60;;;5.10;;
5869;SDS011;2961;47.702;9.410;2023-04-03T01:48:07;8.20;;;5.90;;
5869;SDS011;2961;47.702;9.410;2023-04-03T01:50:35;7.27;;;6.47;;
5869;SDS011;2961;47.702;9.410;2023-04-03T01:53:02;9.83;;;5.80;;
5869;SDS011;2961;47.702;9.410;2023-04-03T01:55:29;6.50;;;5.80;;
5869;SDS011;2961;47.702;9.410;2023-04-03T01:57:56;8.17;;;6.20;;
5869;SDS011;2961;47.702;9.410;2023-04-03T02:00:22;7.80;;;6.97;;
5869;SDS011;2961;47.702;9.410;2023-04-03T02:02:49;6.53;;;5.93;;
5869;SDS011;2961;47.702;9.410;2023-04-03T02:05:16;6.23;;;5.70;;
5869;SDS011;2961;47.702;9.410;2023-04-03T02:07:44;8.57;;;6.67;;
5869;SDS011;2961;47.702;9.410;2023-04-03T02:10:11;8.83;;;6.40;;
5869;SDS011;2961;47.702;9.410;2023-04-03T02:12:39;7.17;;;5.90;;
5869;SDS011;2961;47.702;9.410;2023-04-03T02:15:06;10.83;;;6.20;;
5869;SDS011;2961;47.702;9.410;2023-04-03T02:17:34;7.60;;;6.80;;
5869;SDS011;2961;47.702;9.410;2023-04-03T02:20:01;8.33;;;6.93;;
5869;SDS011;2961;47.702;9.410;2023-04-03T02:22:29;7.67;;;6.87;;
5869;SDS011;2961;47.702;9.410;2023-04-03T02:24:57;7.27;;;6.13;;
5869;SDS011;2961;47.702;9.410;2023-04-03T02:27:24;7.83;;;6.73;;
5869;SDS011;2961;47.702;9.410;2023-04-03T02:29:51;7.80;;;6.53;;
5869;SDS011;2961;47.702;9.410;2023-04-03T02:32:17;6.50;;;5.90;;
5869;SDS011;2961;47.702;9.410;2023-04-03T02:34:44;6.53;;;5.50;;
5869;SDS011;2961;47.702;9.410;2023-04-03T02:37:11;7.10;;;5.53;;
5869;SDS011;2961;47.702;9.410;2023-04-03T02:39:38;7.57;;;6.80;;
5869;SDS011;2961;47.702;9.410;2023-04-03T02:42:06;6.80;;;6.10;;
5869;SDS011;2961;47.702;9.410;2023-04-03T02:44:33;9.37;;;6.17;;
5869;SDS011;2961;47.702;9.410;2023-04-03T02:47:00;6.20;;;5.60;;
5869;SDS011;2961;47.702;9.410;2023-04-03T02:49:27;5.93;;;5.33;;
5869;SDS011;2961;47.702;9.410;2023-04-03T02:51:54;6.60;;;5.97;;
5869;SDS011;2961;47.702;9.410;2023-04-03T02:54:21;8.23;;;6.23;;
5869;SDS011;2961;47.702;9.410;2023-04-03T02:56:48;7.20;;;6.20;;
5869;SDS011;2961;47.702;9.410;2023-04-03T02:59:17;6.47;;;4.80;;
5869;SDS011;2961;47.702;9.410;2023-04-03T03:01:44;11.33;;;5.77;;
5869;SDS011;2961;47.702;9.410;2023-04-03T03:04:11;5.87;;;5.37;;
5869;SDS011;2961;47.702;9.410;2023-04-03T03:06:38;6.27;;;5.67;;
5869;SDS011;2961;47.702;9.410;2023-04-03T03:09:05;5.10;;;4.63;;
5869;SDS011;2961;47.702;9.410;2023-04-03T03:11:32;6.30;;;5.70;;
5869;SDS011;2961;47.702;9.410;2023-04-03T03:14:00;5.33;;;4.83;;
5869;SDS011;2961;47.702;9.410;2023-04-03T03:16:28;6.00;;;5.40;;
5869;SDS011;2961;47.702;9.410;2023-04-03T03:18:55;6.63;;;5.17;;
5869;SDS011;2961;47.702;9.410;2023-04-03T03:21:22;5.67;;;5.17;;
5869;SDS011;2961;47.702;9.410;2023-04-03T03:23:48;5.50;;;5.00;;
5869;SDS011;2961;47.702;9.410;2023-04-03T03:26:15;5.60;;;5.10;;
5869;SDS011;2961;47.702;9.410;2023-04-03T03:28:42;5.10;;;4.63;;
5869;SDS011;2961;47.702;9.410;2023-04-03T03:31:09;6.00;;;5.40;;
5869;SDS011;2961;47.702;9.410;2023-04-03T03:33:38;6.83;;;5.30;;
5869;SDS011;2961;47.702;9.410;2023-04-03T03:36:05;4.80;;;4.30;;
5869;SDS011;2961;47.702;9.410;2023-04-03T03:38:32;5.03;;;4.60;;
5869;SDS011;2961;47.702;9.410;2023-04-03T03:40:59;8.10;;;4.40;;
5869;SDS011;2961;47.702;9.410;2023-04-03T03:43:26;5.57;;;5.07;;
5869;SDS011;2961;47.702;9.410;2023-04-03T03:45:53;4.63;;;4.33;;
5869;SDS011;2961;47.702;9.410;2023-04-03T03:48:21;5.33;;;4.83;;
5869;SDS011;2961;47.702;9.410;2023-04-03T03:50:49;4.40;;;3.63;;
5869;SDS011;2961;47.702;9.410;2023-04-03T03:53:16;5.27;;;4.23;;
5869;SDS011;2961;47.702;9.410;2023-04-03T03:55:44;4.80;;;4.40;;
5869;SDS011;2961;47.702;9.410;2023-04-03T03:58:11;4.50;;;4.10;;
5869;SDS011;2961;47.702;9.410;2023-04-03T04:00:37;6.50;;;5.10;;
5869;SDS011;2961;47.702;9.410;2023-04-03T04:03:04;4.70;;;4.30;;
5869;SDS011;2961;47.702;9.410;2023-04-03T04:05:31;3.73;;;3.43;;
5869;SDS011;2961;47.702;9.410;2023-04-03T04:07:59;4.50;;;4.10;;
5869;SDS011;2961;47.702;9.410;2023-04-03T04:10:26;4.70;;;3.83;;
5869;SDS011;2961;47.702;9.410;2023-04-03T04:12:53;4.70;;;4.30;;
5869;SDS011;2961;47.702;9.410;2023-04-03T04:15:20;4.10;;;3.80;;
5869;SDS011;2961;47.702;9.410;2023-04-03T04:17:47;7.17;;;4.20;;
5869;SDS011;2961;47.702;9.410;2023-04-03T04:20:14;5.07;;;4.57;;
5869;SDS011;2961;47.702;9.410;2023-04-03T04:22:41;4.73;;;4.23;;
5869;SDS011;2961;47.702;9.410;2023-04-03T04:25:10;4.50;;;4.10;;
5869;SDS011;2961;47.702;9.410;2023-04-03T04:27:36;5.47;;;4.53;;
5869;SDS011;2961;47.702;9.410;2023-04-03T04:30:04;4.60;;;4.20;;
5869;SDS011;2961;47.702;9.410;2023-04-03T04:32:31;4.60;;;4.20;;
5869;SDS011;2961;47.702;9.410;2023-04-03T04:34:58;5.00;;;4.50;;
5869;SDS011;2961;47.702;9.410;2023-04-03T04:37:26;5.70;;;4.73;;
5869;SDS011;2961;47.702;9.410;2023-04-03T04:39:52;5.00;;;4.60;;
5869;SDS011;2961;47.702;9.410;2023-04-03T04:42:21;13.10;;;4.47;;
5869;SDS011;2961;47.702;9.410;2023-04-03T04:44:48;6.20;;;4.50;;
5869;SDS011;2961;47.702;9.410;2023-04-03T04:47:15;5.23;;;4.73;;
5869;SDS011;2961;47.702;9.410;2023-04-03T04:49:42;5.97;;;5.37;;
5869;SDS011;2961;47.702;9.410;2023-04-03T04:52:09;5.97;;;4.77;;
5869;SDS011;2961;47.702;9.410;2023-04-03T04:54:37;4.13;;;3.83;;
5869;SDS011;2961;47.702;9.410;2023-04-03T04:57:04;5.63;;;4.63;;
5869;SDS011;2961;47.702;9.410;2023-04-03T04:59:32;4.83;;;4.07;;
5869;SDS011;2961;47.702;9.410;2023-04-03T05:01:59;3.70;;;3.50;;
5869;SDS011;2961;47.702;9.410;2023-04-03T05:04:26;7.00;;;4.87;;
5869;SDS011;2961;47.702;9.410;2023-04-03T05:06:52;4.63;;;4.23;;
5869;SDS011;2961;47.702;9.410;2023-04-03T05:09:19;4.67;;;4.27;;
5869;SDS011;2961;47.702;9.410;2023-04-03T05:11:46;4.57;;;4.00;;
5869;SDS011;2961;47.702;9.410;2023-04-03T05:14:13;4.50;;;4.10;;
5869;SDS011;2961;47.702;9.410;2023-04-03T05:16:41;4.77;;;4.20;;
5869;SDS011;2961;47.702;9.410;2023-04-03T05:19:08;4.30;;;3.97;;
5869;SDS011;2961;47.702;9.410;2023-04-03T05:21:35;6.33;;;4.40;;
5869;SDS011;2961;47.702;9.410;2023-04-03T05:24:02;5.88;;;4.63;;
5869;SDS011;2961;47.702;9.410;2023-04-03T05:26:30;5.60;;;3.73;;
5869;SDS011;2961;47.702;9.410;2023-04-03T05:28:57;4.20;;;3.77;;
5869;SDS011;2961;47.702;9.410;2023-04-03T05:31:24;5.27;;;4.87;;
5869;SDS011;2961;47.702;9.410;2023-04-03T05:33:55;5.73;;;4.37;;
5869;SDS011;2961;47.702;9.410;2023-04-03T05:36:22;3.90;;;3.60;;
5869;SDS011;2961;47.702;9.410;2023-04-03T05:38:49;4.13;;;3.83;;
5869;SDS011;2961;47.702;9.410;2023-04-03T05:41:16;4.00;;;3.70;;
5869;SDS011;2961;47.702;9.410;2023-04-03T05:43:43;4.73;;;4.00;;
5869;SDS011;2961;47.702;9.410;2023-04-03T05:46:10;4.20;;;3.90;;
5869;SDS011;2961;47.702;9.410;2023-04-03T05:48:38;4.80;;;4.40;;
5869;SDS011;2961;47.702;9.410;2023-04-03T05:51:06;4.43;;;3.80;;
5869;SDS011;2961;47.702;9.410;2023-04-03T05:53:39;4.57;;;4.17;;
5869;SDS011;2961;47.702;9.410;2023-04-03T05:56:07;9.60;;;3.17;;
5869;SDS011;2961;47.702;9.410;2023-04-03T05:58:34;5.17;;;3.80;;
5869;SDS011;2961;47.702;9.410;2023-04-03T06:01:00;4.10;;;3.70;;
5869;SDS011;2961;47.702;9.410;2023-04-03T06:03:27;4.17;;;3.87;;
5869;SDS011;2961;47.702;9.410;2023-04-03T06:05:54;4.60;;;3.93;;
5869;SDS011;2961;47.702;9.410;2023-04-03T06:08:22;6.13;;;4.13;;
5869;SDS011;2961;47.702;9.410;2023-04-03T06:10:49;6.00;;;4.37;;
5869;SDS011;2961;47.702;9.410;2023-04-03T06:13:16;4.20;;;3.80;;
5869;SDS011;2961;47.702;9.410;2023-04-03T06:15:43;6.73;;;5.00;;
5869;SDS011;2961;47.702;9.410;2023-04-03T06:18:10;6.47;;;4.70;;
5869;SDS011;2961;47.702;9.410;2023-04-03T06:20:37;3.97;;;3.60;;
5869;SDS011;2961;47.702;9.410;2023-04-03T06:23:04;4.83;;;4.00;;
5869;SDS011;2961;47.702;9.410;2023-04-03T06:25:32;3.63;;;3.33;;
5869;SDS011;2961;47.702;9.410;2023-04-03T06:27:59;4.03;;;3.73;;
5869;SDS011;2961;47.702;9.410;2023-04-03T06:30:26;4.23;;;3.93;;
5869;SDS011;2961;47.702;9.410;2023-04-03T06:32:52;3.60;;;3.30;;
5869;SDS011;2961;47.702;9.410;2023-04-03T06:35:20;4.30;;;4.00;;
5869;SDS011;2961;47.702;9.410;2023-04-03T06:37:48;3.77;;;3.40;;
5869;SDS011;2961;47.702;9.410;2023-04-03T06:40:15;3.50;;;3.23;;
5869;SDS011;2961;47.702;9.410;2023-04-03T06:42:48;4.23;;;3.80;;
5869;SDS011;2961;47.702;9.410;2023-04-03T06:45:15;4.90;;;4.20;;
5869;SDS011;2961;47.702;9.410;2023-04-03T06:47:42;4.40;;;4.00;;
5869;SDS011;2961;47.702;9.410;2023-04-03T06:50:09;5.03;;;4.13;;
5869;SDS011;2961;47.702;9.410;2023-04-03T06:52:39;4.80;;;4.37;;
5869;SDS011;2961;47.702;9.410;2023-04-03T06:55:06;5.43;;;4.10;;
5869;SDS011;2961;47.702;9.410;2023-04-03T06:57:34;5.43;;;3.90;;
5869;SDS011;2961;47.702;9.410;2023-04-03T07:00:02;5.03;;;4.50;;
5869;SDS011;2961;47.702;9.410;2023-04-03T07:02:30;4.33;;;4.00;;
5869;SDS011;2961;47.702;9.410;2023-04-03T07:04:57;8.60;;;4.47;;
5869;SDS011;2961;47.702;9.410;2023-04-03T07:07:24;4.63;;;4.10;;
5869;SDS011;2961;47.702;9.410;2023-04-03T07:09:51;4.57;;;4.07;;
5869;SDS011;2961;47.702;9.410;2023-04-03T07:12:18;4.80;;;4.40;;
5869;SDS011;2961;47.702;9.410;2023-04-03T07:14:45;4.10;;;3.80;;
5869;SDS011;2961;47.702;9.410;2023-04-03T07:17:13;6.20;;;4.20;;
5869;SDS011;2961;47.702;9.410;2023-04-03T07:19:40;5.13;;;4.67;;
5869;SDS011;2961;47.702;9.410;2023-04-03T07:22:06;4.43;;;4.10;;
5869;SDS011;2961;47.702;9.410;2023-04-03T07:24:33;3.77;;;3.37;;
5869;SDS011;2961;47.702;9.410;2023-04-03T07:27:00;5.50;;;4.80;;
5869;SDS011;2961;47.702;9.410;2023-04-03T07:29:27;4.20;;;3.57;;
5869;SDS011;2961;47.702;9.410;2023-04-03T07:31:55;5.33;;;4.80;;
5869;SDS011;2961;47.702;9.410;2023-04-03T07:34:23;9.10;;;3.90;;
5869;SDS011;2961;47.702;9.410;2023-04-03T07:36:50;5.03;;;4.50;;
5869;SDS011;2961;47.702;9.410;2023-04-03T07:39:17;6.77;;;4.30;;
5869;SDS011;2961;47.702;9.410;2023-04-03T07:41:44;4.27;;;3.97;;
5869;SDS011;2961;47.702;9.410;2023-04-03T07:44:10;5.00;;;4.50;;
5869;SDS011;2961;47.702;9.410;2023-04-03T07:46:37;6.10;;;4.50;;
5869;SDS011;2961;47.702;9.410;2023-04-03T07:49:05;5.23;;;4.00;;
5869;SDS011;2961;47.702;9.410;2023-04-03T07:51:34;5.27;;;4.80;;
5869;SDS011;2961;47.702;9.410;2023-04-03T07:54:00;5.50;;;5.00;;
5869;SDS011;2961;47.702;9.410;2023-04-03T07:56:27;6.30;;;4.37;;
5869;SDS011;2961;47.702;9.410;2023-04-03T07:58:54;7.17;;;4.73;;
5869;SDS011;2961;47.702;9.410;2023-04-03T08:01:21;5.50;;;5.00;;
5869;SDS011;2961;47.702;9.410;2023-04-03T08:03:48;5.60;;;4.57;;
5869;SDS011;2961;47.702;9.410;2023-04-03T08:06:15;5.63;;;4.83;;
5869;SDS011;2961;47.702;9.410;2023-04-03T08:08:44;5.47;;;4.47;;
5869;SDS011;2961;47.702;9.410;2023-04-03T08:11:11;7.00;;;5.63;;
5869;SDS011;2961;47.702;9.410;2023-04-03T08:13:38;6.07;;;5.40;;
5869;SDS011;2961;47.702;9.410;2023-04-03T08:16:07;6.80;;;5.30;;
5869;SDS011;2961;47.702;9.410;2023-04-03T08:18:38;5.20;;;4.80;;
5869;SDS011;2961;47.702;9.410;2023-04-03T08:21:06;9.30;;;5.53;;
5869;SDS011;2961;47.702;9.410;2023-04-03T08:23:34;5.13;;;4.50;;
5869;SDS011;2961;47.702;9.410;2023-04-03T08:26:06;5.73;;;4.60;;
5869;SDS011;2961;47.702;9.410;2023-04-03T08:28:34;6.50;;;5.60;;
5869;SDS011;2961;47.702;9.410;2023-04-03T08:31:04;6.40;;;5.27;;
5869;SDS011;2961;47.702;9.410;2023-04-03T08:33:32;4.30;;;3.93;;
5869;SDS011;2961;47.702;9.410;2023-04-03T08:36:00;9.83;;;5.13;;
5869;SDS011;2961;47.702;9.410;2023-04-03T08:38:27;7.17;;;5.53;;
5869;SDS011;2961;47.702;9.410;2023-04-03T08:41:02;8.47;;;5.67;;
5869;SDS011;2961;47.702;9.410;2023-04-03T08:43:39;7.50;;;5.30;;
5869;SDS011;2961;47.702;9.410;2023-04-03T08:46:14;9.53;;;4.27;;
5869;SDS011;2961;47.702;9.410;2023-04-03T08:48:45;5.90;;;5.10;;
5869;SDS011;2961;47.702;9.410;2023-04-03T08:51:14;6.80;;;5.13;;
5869;SDS011;2961;47.702;9.410;2023-04-03T08:53:44;5.07;;;4.57;;
5869;SDS011;2961;47.702;9.410;2023-04-03T08:56:18;7.03;;;5.03;;
5869;SDS011;2961;47.702;9.410;2023-04-03T08:58:49;7.53;;;5.40;;
5869;SDS011;2961;47.702;9.410;2023-04-03T09:01:20;5.20;;;4.70;;
5869;SDS011;2961;47.702;9.410;2023-04-03T09:03:51;7.83;;;4.73;;
5869;SDS011;2961;47.702;9.410;2023-04-03T09:06:18;4.27;;;3.90;;
5869;SDS011;2961;47.702;9.410;2023-04-03T09:08:49;4.43;;;4.03;;
5869;SDS011;2961;47.702;9.410;2023-04-03T09:11:23;5.33;;;4.40;;
5869;SDS011;2961;47.702;9.410;2023-04-03T09:13:54;4.67;;;4.00;;
5869;SDS011;2961;47.702;9.410;2023-04-03T09:16:28;6.50;;;4.63;;
5869;SDS011;2961;47.702;9.410;2023-04-03T09:19:02;4.97;;;4.57;;
5869;SDS011;2961;47.702;9.410;2023-04-03T09:21:39;5.57;;;4.73;;
5869;SDS011;2961;47.702;9.410;2023-04-03T09:24:07;6.70;;;4.60;;
5869;SDS011;2961;47.702;9.410;2023-04-03T09:26:38;6.57;;;4.33;;
5869;SDS011;2961;47.702;9.410;2023-04-03T09:29:10;5.07;;;4.43;;
5869;SDS011;2961;47.702;9.410;2023-04-03T09:31:44;5.80;;;3.30;;
5869;SDS011;2961;47.702;9.410;2023-04-03T09:34:13;4.30;;;3.93;;
5869;SDS011;2961;47.702;9.410;2023-04-03T09:36:48;4.63;;;3.80;;
5869;SDS011;2961;47.702;9.410;2023-04-03T09:39:17;6.73;;;4.63;;
5869;SDS011;2961;47.702;9.410;2023-04-03T09:41:57;5.43;;;4.80;;
5869;SDS011;2961;47.702;9.410;2023-04-03T09:44:27;5.43;;;4.93;;
5869;SDS011;2961;47.702;9.410;2023-04-03T09:46:55;4.93;;;4.53;;
5869;SDS011;2961;47.702;9.410;2023-04-03T09:49:22;4.50;;;4.20;;
5869;SDS011;2961;47.702;9.410;2023-04-03T09:51:49;5.03;;;3.90;;
5869;SDS011;2961;47.702;9.410;2023-04-03T09:57:04;4.53;;;3.73;;
5869;SDS011;2961;47.702;9.410;2023-04-03T09:59:33;4.70;;;4.30;;
5869;SDS011;2961;47.702;9.410;2023-04-03T10:02:01;5.03;;;4.53;;
5869;SDS011;2961;47.702;9.410;2023-04-03T10:04:39;5.00;;;4.50;;
5869;SDS011;2961;47.702;9.410;2023-04-03T10:07:26;5.20;;;4.70;;
5869;SDS011;2961;47.702;9.410;2023-04-03T10:09:57;5.20;;;4.70;;
5869;SDS011;2961;47.702;9.410;2023-04-03T10:12:28;4.67;;;4.17;;
5869;SDS011;2961;47.702;9.410;2023-04-03T10:14:55;4.30;;;3.90;;
5869;SDS011;2961;47.702;9.410;2023-04-03T10:17:29;4.40;;;3.97;;
5869;SDS011;2961;47.702;9.410;2023-04-03T10:20:06;8.53;;;4.10;;
5869;SDS011;2961;47.702;9.410;2023-04-03T10:22:44;3.80;;;3.50;;
5869;SDS011;2961;47.702;9.410;2023-04-03T10:25:21;4.67;;;4.23;;
5869;SDS011;2961;47.702;9.410;2023-04-03T10:27:55;4.87;;;4.47;;
5869;SDS011;2961;47.702;9.410;2023-04-03T10:30:31;4.93;;;4.20;;
5869;SDS011;2961;47.702;9.410;2023-04-03T10:33:08;4.60;;;4.30;;
5869;SDS011;2961;47.702;9.410;2023-04-03T10:35:51;5.05;;;4.55;;
5869;SDS011;2961;47.702;9.410;2023-04-03T10:38:26;6.30;;;4.23;;
5869;SDS011;2961;47.702;9.410;2023-04-03T10:40:59;4.53;;;4.23;;
5869;SDS011;2961;47.702;9.410;2023-04-03T10:43:35;3.77;;;3.47;;
5869;SDS011;2961;47.702;9.410;2023-04-03T10:46:09;3.50;;;3.20;;
5869;SDS011;2961;47.702;9.410;2023-04-03T10:48:45;3.90;;;3.60;;
5869;SDS011;2961;47.702;9.410;2023-04-03T10:51:22;3.90;;;3.60;;
5869;SDS011;2961;47.702;9.410;2023-04-03T10:53:53;3.80;;;3.50;;
5869;SDS011;2961;47.702;9.410;2023-04-03T10:56:27;4.50;;;3.07;;
5869;SDS011;2961;47.702;9.410;2023-04-03T10:59:01;3.53;;;3.33;;
5869;SDS011;2961;47.702;9.410;2023-04-03T11:01:38;3.60;;;3.30;;
5869;SDS011;2961;47.702;9.410;2023-04-03T11:04:08;4.47;;;3.50;;
5869;SDS011;2961;47.702;9.410;2023-04-03T11:06:38;2.90;;;2.80;;
5869;SDS011;2961;47.702;9.410;2023-04-03T11:09:12;2.70;;;2.60;;
5869;SDS011;2961;47.702;9.410;2023-04-03T11:11:47;4.00;;;3.03;;
5869;SDS011;2961;47.702;9.410;2023-04-03T11:14:21;3.00;;;2.80;;
5869;SDS011;2961;47.702;9.410;2023-04-03T11:16:53;3.30;;;3.10;;
5869;SDS011;2961;47.702;9.410;2023-04-03T11:19:29;2.63;;;2.43;;
5869;SDS011;2961;47.702;9.410;2023-04-03T11:22:04;2.43;;;2.33;;
5869;SDS011;2961;47.702;9.410;2023-04-03T11:24:38;2.30;;;2.20;;
5869;SDS011;2961;47.702;9.410;2023-04-03T11:27:09;2.50;;;2.40;;
5869;SDS011;2961;47.702;9.410;2023-04-03T11:29:43;2.70;;;2.50;;
5869;SDS011;2961;47.702;9.410;2023-04-03T11:32:17;4.07;;;3.43;;
5869;SDS011;2961;47.702;9.410;2023-04-03T11:34:57;4.53;;;2.93;;
5869;SDS011;2961;47.702;9.410;2023-04-03T11:37:28;2.60;;;2.50;;
5869;SDS011;2961;47.702;9.410;2023-04-03T11:40:01;3.30;;;3.10;;
5869;SDS011;2961;47.702;9.410;2023-04-03T11:42:32;3.27;;;3.00;;
5869;SDS011;2961;47.702;9.410;2023-04-03T11:57:22;3.60;;;3.30;;
5869;SDS011;2961;47.702;9.410;2023-04-03T12:09:24;4.93;;;3.27;;
5869;SDS011;2961;47.702;9.410;2023-04-03T12:12:28;5.80;;;3.27;;
5869;SDS011;2961;47.702;9.410;2023-04-03T12:15:11;2.67;;;2.57;;
5869;SDS011;2961;47.702;9.410;2023-04-03T12:17:59;2.77;;;2.57;;
5869;SDS011;2961;47.702;9.410;2023-04-03T12:20:58;6.63;;;2.50;;
5869;SDS011;2961;47.702;9.410;2023-04-03T12:23:27;3.20;;;2.90;;
5869;SDS011;2961;47.702;9.410;2023-04-03T12:26:01;3.27;;;2.97;;
5869;SDS011;2961;47.702;9.410;2023-04-03T12:28:44;2.90;;;2.70;;
5869;SDS011;2961;47.702;9.410;2023-04-03T12:31:13;2.50;;;2.30;;
5869;SDS011;2961;47.702;9.410;2023-04-03T12:33:57;3.10;;;2.13;;
5869;SDS011;2961;47.702;9.410;2023-04-03T12:36:42;3.87;;;3.10;;
5869;SDS011;2961;47.702;9.410;2023-04-03T12:39:25;2.63;;;2.47;;
5869;SDS011;2961;47.702;9.410;2023-04-03T12:42:11;3.00;;;2.77;;
5869;SDS011;2961;47.702;9.410;2023-04-03T12:44:52;2.70;;;2.50;;
5869;SDS011;2961;47.702;9.410;2023-04-03T12:47:27;2.70;;;2.43;;
5869;SDS011;2961;47.702;9.410;2023-04-03T12:49:59;3.50;;;3.20;;
5869;SDS011;2961;47.702;9.410;2023-04-03T12:52:32;4.00;;;2.57;;
5869;SDS011;2961;47.702;9.410;2023-04-03T12:55:03;2.63;;;2.50;;
5869;SDS011;2961;47.702;9.410;2023-04-03T12:57:42;2.80;;;2.60;;
5869;SDS011;2961;47.702;9.410;2023-04-03T13:03:04;3.20;;;2.90;;
5869;SDS011;2961;47.702;9.410;2023-04-03T13:05:34;3.30;;;3.00;;
5869;SDS011;2961;47.702;9.410;2023-04-03T13:08:02;3.90;;;2.70;;
5869;SDS011;2961;47.702;9.410;2023-04-03T13:10:31;2.70;;;2.50;;
5869;SDS011;2961;47.702;9.410;2023-04-03T13:13:09;2.50;;;2.30;;
5869;SDS011;2961;47.702;9.410;2023-04-03T13:15:41;5.65;;;2.85;;
5869;SDS011;2961;47.702;9.410;2023-04-03T13:18:21;2.70;;;2.50;;
5869;SDS011;2961;47.702;9.410;2023-04-03T13:20:55;3.70;;;2.80;;
5869;SDS011;2961;47.702;9.410;2023-04-03T13:23:27;5.57;;;2.90;;
5869;SDS011;2961;47.702;9.410;2023-04-03T13:25:55;2.30;;;2.20;;
5869;SDS011;2961;47.702;9.410;2023-04-03T13:28:26;2.67;;;2.47;;
5869;SDS011;2961;47.702;9.410;2023-04-03T13:30:54;3.00;;;2.67;;
5869;SDS011;2961;47.702;9.410;2023-04-03T13:33:37;2.20;;;1.90;;
5869;SDS011;2961;47.702;9.410;2023-04-03T13:36:06;5.63;;;2.80;;
5869;SDS011;2961;47.702;9.410;2023-04-03T13:38:37;3.00;;;2.43;;
5869;SDS011;2961;47.702;9.410;2023-04-03T13:41:05;2.83;;;2.63;;
5869;SDS011;2961;47.702;9.410;2023-04-03T13:43:49;5.50;;;3.10;;
5869;SDS011;2961;47.702;9.410;2023-04-03T13:46:22;4.37;;;3.33;;
5869;SDS011;2961;47.702;9.410;2023-04-03T13:48:51;3.20;;;2.93;;
5869;SDS011;2961;47.702;9.410;2023-04-03T13:51:22;2.90;;;2.70;;
5869;SDS011;2961;47.702;9.410;2023-04-03T13:53:51;2.87;;;2.67;;
5869;SDS011;2961;47.702;9.410;2023-04-03T13:56:21;2.70;;;2.50;;
5869;SDS011;2961;47.702;9.410;2023-04-03T13:58:56;3.30;;;2.40;;
5869;SDS011;2961;47.702;9.410;2023-04-03T14:01:26;2.73;;;2.43;;
5869;SDS011;2961;47.702;9.410;2023-04-03T14:04:01;9.73;;;3.10;;
5869;SDS011;2961;47.702;9.410;2023-04-03T14:06:39;4.00;;;2.93;;
5869;SDS011;2961;47.702;9.410;2023-04-03T14:09:06;3.10;;;2.90;;
5869;SDS011;2961;47.702;9.410;2023-04-03T14:11:33;4.73;;;2.97;;
5869;SDS011;2961;47.702;9.410;2023-04-03T14:14:02;3.60;;;3.30;;
5869;SDS011;2961;47.702;9.410;2023-04-03T14:16:37;2.60;;;2.40;;
5869;SDS011;2961;47.702;9.410;2023-04-03T14:19:06;2.63;;;2.43;;
5869;SDS011;2961;47.702;9.410;2023-04-03T14:21:33;4.30;;;2.60;;
5869;SDS011;2961;47.702;9.410;2023-04-03T14:24:01;2.60;;;2.40;;
5869;SDS011;2961;47.702;9.410;2023-04-03T14:26:28;3.30;;;3.00;;
5869;SDS011;2961;47.702;9.410;2023-04-03T14:28:55;3.33;;;3.07;;
5869;SDS011;2961;47.702;9.410;2023-04-03T14:31:23;4.00;;;2.83;;
5869;SDS011;2961;47.702;9.410;2023-04-03T14:33:50;2.80;;;2.60;;
5869;SDS011;2961;47.702;9.410;2023-04-03T14:36:18;3.20;;;2.57;;
5869;SDS011;2961;47.702;9.410;2023-04-03T14:38:47;3.43;;;3.13;;
5869;SDS011;2961;47.702;9.410;2023-04-03T14:41:17;2.20;;;2.10;;
5869;SDS011;2961;47.702;9.410;2023-04-03T14:43:45;2.63;;;2.43;;
5869;SDS011;2961;47.702;9.410;2023-04-03T14:46:14;2.70;;;2.47;;
5869;SDS011;2961;47.702;9.410;2023-04-03T14:48:42;2.87;;;2.67;;
5869;SDS011;2961;47.702;9.410;2023-04-03T14:51:09;2.37;;;2.27;;
5869;SDS011;2961;47.702;9.410;2023-04-03T14:53:38;10.23;;;2.80;;
5869;SDS011;2961;47.702;9.410;2023-04-03T14:56:10;2.67;;;2.57;;
5869;SDS011;2961;47.702;9.410;2023-04-03T14:58:39;2.87;;;2.23;;
5869;SDS011;2961;47.702;9.410;2023-04-03T15:01:06;2.53;;;2.33;;
5869;SDS011;2961;47.702;9.410;2023-04-03T15:03:35;2.30;;;2.20;;
5869;SDS011;2961;47.702;9.410;2023-04-03T15:06:02;2.50;;;2.40;;
5869;SDS011;2961;47.702;9.410;2023-04-03T15:08:37;3.53;;;1.70;;
5869;SDS011;2961;47.702;9.410;2023-04-03T15:11:06;2.47;;;2.27;;
5869;SDS011;2961;47.702;9.410;2023-04-03T15:13:32;2.93;;;2.30;;
5869;SDS011;2961;47.702;9.410;2023-04-03T15:16:01;2.40;;;2.30;;
5869;SDS011;2961;47.702;9.410;2023-04-03T15:18:29;3.87;;;2.90;;
5869;SDS011;2961;47.702;9.410;2023-04-03T15:21:01;2.20;;;2.00;;
5869;SDS011;2961;47.702;9.410;2023-04-03T15:23:28;2.37;;;2.27;;
5869;SDS011;2961;47.702;9.410;2023-04-03T15:25:55;2.77;;;2.57;;
5869;SDS011;2961;47.702;9.410;2023-04-03T15:28:25;3.27;;;3.00;;
5869;SDS011;2961;47.702;9.410;2023-04-03T15:30:54;2.63;;;2.43;;
5869;SDS011;2961;47.702;9.410;2023-04-03T15:33:23;2.73;;;2.53;;
5869;SDS011;2961;47.702;9.410;2023-04-03T15:35:50;4.00;;;3.00;;
5869;SDS011;2961;47.702;9.410;2023-04-03T15:38:17;3.20;;;3.00;;
5869;SDS011;2961;47.702;9.410;2023-04-03T15:40:44;3.10;;;2.80;;
5869;SDS011;2961;47.702;9.410;2023-04-03T15:43:12;4.60;;;3.30;;
5869;SDS011;2961;47.702;9.410;2023-04-03T15:45:40;2.83;;;2.60;;
5869;SDS011;2961;47.702;9.410;2023-04-03T15:48:07;4.20;;;3.17;;
5869;SDS011;2961;47.702;9.410;2023-04-03T15:50:36;4.33;;;3.13;;
5869;SDS011;2961;47.702;9.410;2023-04-03T15:53:04;3.50;;;3.20;;
5869;SDS011;2961;47.702;9.410;2023-04-03T15:55:32;3.27;;;2.97;;
5869;SDS011;2961;47.702;9.410;2023-04-03T15:58:00;5.50;;;3.30;;
5869;SDS011;2961;47.702;9.410;2023-04-03T16:00:27;3.67;;;2.87;;